createdAt,value
2019-03-13T00:01:26.628Z,1.10
2019-03-13T00:03:54.929Z,2.40
2019-03-13T00:06:23.166Z,1.30
2019-03-13T00:08:51.437Z,1.70
2019-03-13T00:11:19.675Z,1.13
2019-03-13T00:13:47.941Z,2.03
2019-03-13T00:16:16.182Z,2.60
2019-03-13T00:18:44.418Z,1.07
2019-03-13T00:21:12.729Z,1.80
2019-03-13T00:23:40.942Z,1.10
2019-03-13T00:26:09.190Z,1.23
2019-03-13T00:28:37.457Z,2.10
2019-03-13T00:31:06.268Z,1.40
2019-03-13T00:33:34.535Z,1.00
2019-03-13T00:36:02.953Z,1.47
2019-03-13T00:38:31.209Z,1.40
2019-03-13T00:40:59.451Z,1.90
2019-03-13T00:43:27.752Z,2.20
2019-03-13T00:45:55.985Z,1.27
2019-03-13T00:48:24.283Z,1.90
2019-03-13T00:50:52.519Z,1.80
2019-03-13T00:53:20.869Z,1.10
2019-03-13T00:55:49.134Z,1.07
2019-03-13T00:58:18.967Z,1.83
2019-03-13T01:00:58.345Z,1.93
2019-03-13T01:03:33.923Z,1.80
2019-03-13T01:06:21.925Z,1.73
2019-03-13T01:08:50.159Z,1.50
2019-03-13T01:11:18.521Z,2.73
2019-03-13T01:13:46.785Z,2.30
2019-03-13T01:16:15.053Z,2.00
2019-03-13T01:18:43.344Z,2.40
2019-03-13T01:21:11.648Z,2.60
2019-03-13T01:23:39.904Z,2.13
2019-03-13T01:26:08.149Z,2.33
2019-03-13T01:28:36.446Z,2.40
2019-03-13T01:31:21.347Z,3.30
2019-03-13T01:33:49.741Z,2.50
2019-03-13T01:36:17.981Z,3.23
2019-03-13T01:38:46.222Z,3.00
2019-03-13T01:41:14.674Z,2.87
2019-03-13T01:43:42.949Z,2.87
2019-03-13T01:46:11.176Z,2.70
2019-03-13T01:48:39.576Z,3.37
2019-03-13T01:51:07.814Z,2.30
2019-03-13T01:53:36.793Z,2.07
2019-03-13T01:56:05.069Z,2.40
2019-03-13T01:58:33.374Z,2.67
2019-03-13T02:01:02.432Z,2.90
2019-03-13T02:03:31.005Z,3.13
2019-03-13T02:05:59.254Z,3.10
2019-03-13T02:08:27.560Z,2.97
2019-03-13T02:10:55.816Z,2.40
2019-03-13T02:13:24.925Z,2.60
2019-03-13T02:15:53.179Z,2.30
2019-03-13T02:18:21.470Z,3.77
2019-03-13T02:20:49.851Z,2.87
2019-03-13T02:23:18.181Z,2.20
2019-03-13T02:25:46.445Z,2.73
2019-03-13T02:28:14.739Z,2.77
2019-03-13T02:30:43.128Z,3.07
2019-03-13T02:33:11.381Z,2.40
2019-03-13T02:35:39.755Z,4.23
2019-03-13T02:38:08.049Z,2.90
2019-03-13T02:40:36.630Z,2.53
2019-03-13T02:43:04.884Z,2.57
2019-03-13T02:45:33.145Z,3.50
2019-03-13T02:48:01.411Z,2.53
2019-03-13T02:50:29.677Z,3.10
2019-03-13T02:52:58.075Z,2.50
2019-03-13T02:55:26.309Z,3.03
2019-03-13T02:57:54.547Z,3.87
2019-03-13T03:00:27.458Z,3.37
2019-03-13T03:03:00.063Z,3.17
2019-03-13T03:05:28.289Z,2.97
2019-03-13T03:07:56.565Z,3.47
2019-03-13T03:10:24.876Z,3.63
2019-03-13T03:12:53.176Z,3.00
2019-03-13T03:15:21.454Z,3.90
2019-03-13T03:17:49.696Z,3.00
2019-03-13T03:20:19.860Z,4.23
2019-03-13T03:22:48.096Z,4.50
2019-03-13T03:25:17.453Z,3.40
2019-03-13T03:27:45.691Z,4.47
2019-03-13T03:30:19.353Z,4.43
2019-03-13T03:32:47.622Z,3.40
2019-03-13T03:35:15.997Z,3.80
2019-03-13T03:37:46.895Z,4.10
2019-03-13T03:40:23.035Z,4.20
2019-03-13T03:42:50.076Z,4.40
2019-03-13T03:45:18.552Z,3.63
2019-03-13T03:47:46.824Z,4.83
2019-03-13T03:50:16.220Z,3.13
2019-03-13T03:52:44.477Z,4.40
2019-03-13T03:55:13.728Z,5.33
2019-03-13T03:57:41.972Z,3.80
2019-03-13T04:00:16.456Z,4.07
2019-03-13T04:02:44.766Z,3.13
2019-03-13T04:05:13.138Z,2.93
2019-03-13T04:07:41.471Z,3.57
2019-03-13T04:10:12.038Z,3.60
2019-03-13T04:12:40.666Z,3.07
2019-03-13T04:15:11.749Z,2.90
2019-03-13T04:17:39.999Z,2.73
2019-03-13T04:20:10.383Z,4.33
2019-03-13T04:22:40.267Z,3.30
2019-03-13T04:25:26.869Z,2.30
2019-03-13T04:27:55.195Z,2.87
2019-03-13T04:30:23.479Z,3.13
2019-03-13T04:32:51.759Z,3.73
2019-03-13T04:35:20.016Z,2.87
2019-03-13T04:37:48.318Z,2.87
2019-03-13T04:40:16.844Z,4.70
2019-03-13T04:42:45.217Z,2.97
2019-03-13T04:45:13.554Z,3.60
2019-03-13T04:47:41.788Z,2.57
2019-03-13T04:50:14.144Z,3.10
2019-03-13T04:52:42.473Z,2.97
2019-03-13T04:55:12.132Z,3.57
2019-03-13T04:57:40.565Z,2.77
2019-03-13T05:00:15.008Z,3.20
2019-03-13T05:02:43.382Z,2.50
2019-03-13T05:05:31.311Z,2.10
2019-03-13T05:07:59.547Z,1.90
2019-03-13T05:10:27.846Z,3.07
2019-03-13T05:12:56.410Z,2.33
2019-03-13T05:15:24.838Z,3.47
2019-03-13T05:17:53.098Z,2.70
2019-03-13T05:20:21.384Z,2.80
2019-03-13T05:23:04.321Z,2.47
2019-03-13T05:25:31.464Z,2.43
2019-03-13T05:27:59.773Z,2.77
2019-03-13T05:30:28.007Z,2.63
2019-03-13T05:32:56.306Z,2.43
2019-03-13T05:45:01.657Z,2.87
2019-03-13T05:47:29.966Z,3.27
2019-03-13T05:50:01.211Z,3.00
2019-03-13T05:52:29.480Z,3.63
2019-03-13T05:54:57.763Z,3.40
2019-03-13T05:57:26.027Z,2.70
2019-03-13T05:59:54.274Z,2.33
2019-03-13T06:02:23.355Z,2.83
2019-03-13T06:04:51.601Z,3.20
2019-03-13T06:07:19.846Z,3.17
2019-03-13T06:09:48.116Z,3.07
2019-03-13T06:12:16.362Z,3.10
2019-03-13T06:14:44.714Z,3.17
2019-03-13T06:17:12.992Z,2.20
2019-03-13T06:19:41.249Z,2.83
2019-03-13T06:22:09.486Z,3.47
2019-03-13T06:24:37.786Z,3.30
2019-03-13T06:27:06.031Z,2.90
2019-03-13T06:29:34.351Z,2.77
2019-03-13T06:32:02.584Z,3.40
2019-03-13T06:34:31.024Z,3.60
2019-03-13T06:36:59.944Z,2.50
2019-03-13T06:39:28.195Z,3.37
2019-03-13T06:41:56.463Z,2.97
2019-03-13T06:44:24.765Z,2.27
2019-03-13T06:46:53.124Z,3.73
2019-03-13T06:49:21.353Z,3.53
2019-03-13T06:51:49.647Z,3.87
2019-03-13T06:54:17.926Z,3.57
2019-03-13T06:56:46.380Z,4.47
2019-03-13T06:59:16.268Z,3.90
2019-03-13T07:02:02.527Z,3.27
2019-03-13T07:04:32.416Z,3.70
2019-03-13T07:07:17.519Z,4.87
2019-03-13T07:09:47.421Z,3.77
2019-03-13T07:12:22.810Z,3.50
2019-03-13T07:15:04.701Z,4.10
2019-03-13T07:17:37.413Z,4.00
2019-03-13T07:20:10.605Z,3.43
2019-03-13T07:22:40.567Z,3.60
2019-03-13T07:25:28.807Z,3.57
2019-03-13T07:28:07.726Z,3.50
2019-03-13T07:30:37.614Z,3.10
2019-03-13T07:33:24.123Z,3.60
2019-03-13T07:35:56.705Z,4.70
2019-03-13T07:38:35.415Z,3.60
2019-03-13T07:41:05.333Z,4.97
2019-03-13T07:43:41.092Z,3.50
2019-03-13T07:46:22.690Z,3.37
2019-03-13T07:49:04.536Z,5.50
2019-03-13T07:51:34.413Z,3.10
2019-03-13T07:54:07.257Z,3.83
2019-03-13T07:56:53.450Z,5.33
2019-03-13T07:59:26.118Z,3.30
2019-03-13T08:01:56.018Z,5.73
2019-03-13T08:04:28.812Z,3.50
2019-03-13T08:06:58.742Z,4.00
2019-03-13T08:09:43.403Z,3.30
2019-03-13T08:12:13.327Z,4.80
2019-03-13T08:15:02.053Z,3.67
2019-03-13T08:17:47.952Z,3.47
2019-03-13T08:20:20.351Z,3.20
2019-03-13T08:23:08.640Z,4.83
2019-03-13T08:25:54.474Z,3.93
2019-03-13T08:28:26.853Z,3.70
2019-03-13T08:31:14.624Z,4.23
2019-03-13T08:33:48.659Z,3.43
2019-03-13T08:36:18.586Z,4.10
2019-03-13T08:38:57.132Z,4.00
2019-03-13T08:41:27.054Z,3.17
2019-03-13T08:44:02.681Z,2.53
2019-03-13T08:46:41.469Z,5.90
2019-03-13T08:49:29.449Z,2.20
2019-03-13T08:52:17.428Z,2.47
2019-03-13T08:54:59.316Z,2.63
2019-03-13T08:57:29.261Z,2.60
2019-03-13T08:59:59.140Z,4.03
2019-03-13T09:02:29.028Z,2.60
2019-03-13T09:05:07.725Z,2.40
2019-03-13T09:07:37.659Z,2.53
2019-03-13T09:10:16.824Z,2.47
2019-03-13T09:12:52.406Z,3.00
2019-03-13T09:15:22.360Z,3.40
2019-03-13T09:17:52.272Z,2.00
2019-03-13T09:20:27.974Z,2.77
2019-03-13T09:23:00.569Z,2.83
2019-03-13T09:25:30.463Z,3.50
2019-03-13T09:28:09.352Z,2.60
2019-03-13T09:30:48.211Z,3.70
2019-03-13T09:33:18.137Z,3.47
2019-03-13T09:35:54.001Z,2.53
2019-03-13T09:38:26.700Z,2.53
2019-03-13T09:41:05.707Z,3.00
2019-03-13T09:43:35.602Z,1.93
2019-03-13T09:46:06.044Z,2.77
2019-03-13T09:48:51.820Z,2.60
2019-03-13T09:51:37.655Z,2.50
2019-03-13T09:54:26.028Z,2.70
2019-03-13T09:57:01.599Z,2.60
2019-03-13T09:59:42.812Z,2.40
2019-03-13T10:02:03.179Z,3.13
2019-03-13T10:04:35.589Z,2.63
2019-03-13T10:07:22.903Z,3.47
2019-03-13T10:10:01.378Z,1.90
2019-03-13T10:12:47.458Z,2.30
2019-03-13T10:15:26.134Z,3.00
2019-03-13T10:17:58.988Z,3.40
2019-03-13T10:20:28.897Z,1.93
2019-03-13T10:23:01.319Z,3.50
2019-03-13T10:25:31.402Z,2.10
2019-03-13T10:28:09.911Z,3.23
2019-03-13T10:30:47.327Z,2.50
2019-03-13T10:33:19.962Z,2.83
2019-03-13T10:35:55.463Z,2.80
2019-03-13T10:38:43.423Z,2.40
2019-03-13T10:41:16.137Z,2.37
2019-03-13T10:43:49.064Z,2.80
2019-03-13T10:46:21.512Z,2.87
2019-03-13T10:49:07.431Z,2.90
2019-03-13T10:51:39.754Z,3.10
2019-03-13T10:54:09.639Z,3.80
2019-03-13T10:56:48.330Z,2.10
2019-03-13T10:59:23.875Z,1.50
2019-03-13T11:01:53.796Z,3.50
2019-03-13T11:04:23.927Z,1.93
2019-03-13T11:06:55.229Z,2.03
2019-03-13T11:09:25.380Z,2.10
2019-03-13T11:11:57.771Z,1.57
2019-03-13T11:14:36.377Z,3.00
2019-03-13T11:17:15.214Z,2.20
2019-03-13T11:19:47.930Z,1.47
2019-03-13T11:22:33.119Z,1.67
2019-03-13T11:25:05.669Z,1.80
2019-03-13T11:27:47.628Z,1.50
2019-03-13T11:30:20.627Z,1.63
2019-03-13T11:32:49.393Z,1.27
2019-03-13T11:35:19.347Z,0.87
2019-03-13T11:38:01.102Z,0.73
2019-03-13T11:40:43.218Z,1.20
2019-03-13T11:43:18.930Z,1.27
2019-03-13T11:45:54.797Z,1.30
2019-03-13T11:48:24.730Z,1.03
2019-03-13T11:50:57.518Z,1.20
2019-03-13T11:53:27.441Z,1.70
2019-03-13T11:56:09.391Z,1.70
2019-03-13T11:58:45.231Z,1.50
2019-03-13T12:01:18.111Z,1.67
2019-03-13T12:03:48.065Z,1.50
2019-03-13T12:06:24.126Z,2.37
2019-03-13T12:09:09.374Z,1.50
2019-03-13T12:11:42.036Z,1.07
2019-03-13T12:14:17.642Z,1.10
2019-03-13T12:16:47.699Z,1.17
2019-03-13T12:19:17.620Z,1.47
2019-03-13T12:22:03.712Z,1.30
2019-03-13T12:24:33.648Z,1.20
2019-03-13T12:27:09.507Z,1.57
2019-03-13T12:29:41.923Z,1.93
2019-03-13T12:32:11.852Z,1.70
2019-03-13T12:34:56.679Z,2.00
2019-03-13T12:37:29.519Z,1.67
2019-03-13T12:40:11.481Z,5.37
2019-03-13T12:42:47.050Z,2.47
2019-03-13T12:45:29.385Z,2.83
2019-03-13T12:48:00.471Z,2.07
2019-03-13T12:50:34.322Z,1.33
2019-03-13T12:53:04.435Z,1.33
2019-03-13T12:55:34.367Z,1.37
2019-03-13T12:58:20.411Z,1.40
2019-03-13T13:00:50.318Z,2.10
2019-03-13T13:03:34.608Z,2.47
2019-03-13T13:06:04.590Z,2.20
2019-03-13T13:08:41.566Z,1.47
2019-03-13T13:11:17.417Z,2.30
2019-03-13T13:13:47.297Z,1.90
2019-03-13T13:16:29.300Z,0.90
2019-03-13T13:18:57.546Z,0.60
2019-03-13T13:21:25.825Z,0.67
2019-03-13T13:23:54.112Z,0.83
2019-03-13T13:26:22.347Z,0.97
2019-03-13T13:28:50.646Z,2.33
2019-03-13T13:31:18.910Z,1.03
2019-03-13T13:33:47.172Z,1.13
2019-03-13T13:36:15.558Z,1.07
2019-03-13T13:38:43.804Z,1.00
2019-03-13T13:41:12.071Z,1.20
2019-03-13T13:43:40.422Z,1.40
2019-03-13T13:46:17.875Z,1.33
2019-03-13T13:48:46.184Z,2.17
2019-03-13T13:51:14.426Z,2.07
2019-03-13T13:53:42.670Z,1.67
2019-03-13T13:56:10.941Z,3.00
2019-03-13T13:58:39.216Z,1.90
2019-03-13T14:01:07.498Z,1.67
2019-03-13T14:03:35.739Z,2.10
2019-03-13T14:06:04.124Z,1.77
2019-03-13T14:08:32.372Z,1.90
2019-03-13T14:11:00.615Z,2.70
2019-03-13T14:13:28.930Z,2.90
2019-03-13T14:15:57.301Z,1.73
2019-03-13T14:18:25.613Z,2.80
2019-03-13T14:20:53.822Z,2.80
2019-03-13T14:23:22.098Z,3.90
2019-03-13T14:25:50.343Z,2.90
2019-03-13T14:28:18.658Z,3.43
2019-03-13T14:30:46.965Z,2.53
2019-03-13T14:33:15.231Z,1.90
2019-03-13T14:35:46.199Z,1.90
2019-03-13T14:38:13.468Z,0.60
2019-03-13T14:40:41.711Z,1.17
2019-03-13T14:43:10.011Z,0.87
2019-03-13T14:45:38.240Z,1.10
2019-03-13T14:48:07.083Z,1.10
2019-03-13T14:50:36.610Z,1.60
2019-03-13T14:53:05.145Z,1.20
2019-03-13T14:55:33.413Z,2.07
2019-03-13T14:58:01.719Z,2.10
2019-03-13T15:00:29.968Z,1.93
2019-03-13T15:02:59.142Z,3.70
2019-03-13T15:05:27.423Z,2.40
2019-03-13T15:07:55.825Z,1.70
2019-03-13T15:10:24.061Z,2.47
2019-03-13T15:12:52.311Z,1.83
2019-03-13T15:15:22.681Z,2.17
2019-03-13T15:17:53.105Z,2.20
2019-03-13T15:20:30.663Z,2.43
2019-03-13T15:22:58.901Z,2.73
2019-03-13T15:25:27.198Z,2.03
2019-03-13T15:27:55.488Z,2.23
2019-03-13T15:30:27.851Z,2.00
2019-03-13T15:32:56.085Z,1.70
2019-03-13T15:35:24.364Z,2.50
2019-03-13T15:37:52.731Z,2.40
2019-03-13T15:40:20.994Z,2.90
2019-03-13T15:42:49.304Z,3.47
2019-03-13T15:45:24.747Z,2.43
2019-03-13T15:47:53.065Z,2.67
2019-03-13T15:50:21.348Z,3.10
2019-03-13T15:52:49.584Z,2.90
2019-03-13T15:55:18.687Z,3.47
2019-03-13T15:57:46.989Z,2.07
2019-03-13T16:00:24.311Z,2.17
2019-03-13T16:02:55.434Z,3.77
2019-03-13T16:05:22.615Z,3.07
2019-03-13T16:07:50.899Z,2.73
2019-03-13T16:10:19.990Z,2.60
2019-03-13T16:12:48.267Z,1.70
2019-03-13T16:15:25.877Z,1.70
2019-03-13T16:17:54.113Z,1.10
2019-03-13T16:20:22.476Z,1.00
2019-03-13T16:23:01.372Z,1.10
2019-03-13T16:25:29.606Z,1.50
2019-03-13T16:27:57.902Z,1.93
2019-03-13T16:30:34.476Z,1.83
2019-03-13T16:33:02.777Z,2.03
2019-03-13T16:35:31.136Z,1.83
2019-03-13T16:37:59.387Z,1.50
2019-03-13T16:40:27.925Z,2.23
2019-03-13T16:42:56.232Z,2.00
2019-03-13T16:45:24.786Z,2.73
2019-03-13T16:47:53.066Z,2.10
2019-03-13T16:50:26.417Z,1.90
2019-03-13T16:52:54.682Z,2.13
2019-03-13T16:55:22.946Z,1.77
2019-03-13T16:57:51.219Z,2.80
2019-03-13T17:00:31.752Z,2.57
2019-03-13T17:03:00.013Z,2.60
2019-03-13T17:05:28.260Z,2.43
2019-03-13T17:07:56.530Z,4.33
2019-03-13T17:10:26.866Z,2.83
2019-03-13T17:12:55.218Z,4.00
2019-03-13T17:15:25.335Z,3.13
2019-03-13T17:17:54.001Z,2.70
2019-03-13T17:20:29.921Z,3.17
2019-03-13T17:22:58.220Z,2.90
2019-03-13T17:25:26.567Z,3.40
2019-03-13T17:27:54.847Z,3.70
2019-03-13T17:30:26.397Z,3.97
2019-03-13T17:32:54.681Z,3.60
2019-03-13T17:35:22.958Z,2.03
2019-03-13T17:37:51.310Z,2.40
2019-03-13T17:40:30.564Z,2.50
2019-03-13T17:42:59.859Z,2.57
2019-03-13T17:45:28.105Z,2.10
2019-03-13T17:47:56.352Z,3.30
2019-03-13T17:50:25.183Z,3.97
2019-03-13T17:52:53.452Z,3.53
2019-03-13T17:55:22.746Z,3.13
2019-03-13T17:57:51.124Z,2.60
2019-03-13T18:00:22.483Z,2.67
2019-03-13T18:02:50.713Z,3.40
2019-03-13T18:05:19.044Z,2.83
2019-03-13T18:07:47.271Z,4.00
2019-03-13T18:10:20.055Z,2.60
2019-03-13T18:12:48.289Z,4.70
2019-03-13T18:15:17.786Z,3.17
2019-03-13T18:17:46.001Z,3.13
2019-03-13T18:20:19.806Z,4.67
2019-03-13T18:22:48.225Z,5.13
2019-03-13T18:25:18.104Z,3.40
2019-03-13T18:27:46.823Z,2.97
2019-03-13T18:30:22.987Z,1.97
2019-03-13T18:32:51.226Z,4.27
2019-03-13T18:35:20.358Z,3.47
2019-03-13T18:37:48.670Z,3.53
2019-03-13T18:40:18.689Z,4.63
2019-03-13T18:42:47.119Z,2.53
2019-03-13T18:45:29.030Z,3.40
2019-03-13T18:47:57.612Z,3.90
2019-03-13T18:50:25.875Z,3.53
2019-03-13T18:52:54.171Z,4.63
2019-03-13T18:55:35.565Z,2.77
2019-03-13T18:58:03.805Z,3.97
2019-03-13T19:00:36.023Z,4.17
2019-03-13T19:03:06.101Z,5.20
2019-03-13T19:05:36.007Z,4.13
2019-03-13T19:08:05.167Z,4.57
2019-03-13T19:10:33.870Z,4.30
2019-03-13T19:13:02.165Z,3.40
2019-03-13T19:15:30.420Z,4.37
2019-03-13T19:18:00.822Z,3.80
2019-03-13T19:20:29.615Z,4.10
2019-03-13T19:22:57.848Z,4.23
2019-03-13T19:25:26.227Z,5.27
2019-03-13T19:27:54.471Z,4.20
2019-03-13T19:30:32.700Z,4.33
2019-03-13T19:33:00.950Z,4.60
2019-03-13T19:35:29.225Z,4.93
2019-03-13T19:38:09.115Z,3.93
2019-03-13T19:40:37.652Z,3.80
2019-03-13T19:43:06.476Z,4.63
2019-03-13T19:45:45.921Z,5.63
2019-03-13T19:48:14.237Z,5.30
2019-03-13T19:50:44.188Z,4.80
2019-03-13T19:53:12.592Z,5.57
2019-03-13T19:55:42.938Z,4.77
2019-03-13T19:58:14.194Z,4.20
2019-03-13T20:00:46.132Z,5.23
2019-03-13T20:03:17.413Z,5.07
2019-03-13T20:05:46.789Z,5.67
2019-03-13T20:08:17.276Z,4.30
2019-03-13T20:10:47.916Z,3.70
2019-03-13T20:13:19.502Z,2.93
2019-03-13T20:15:49.410Z,4.73
2019-03-13T20:18:19.444Z,4.80
2019-03-13T20:20:49.520Z,4.10
2019-03-13T20:23:20.887Z,4.70
2019-03-13T20:25:50.527Z,4.10
2019-03-13T20:28:29.152Z,4.37
2019-03-13T20:30:58.729Z,3.30
2019-03-13T20:33:33.881Z,4.50
2019-03-13T20:36:07.230Z,3.73
2019-03-13T20:38:40.952Z,4.40
2019-03-13T20:41:09.296Z,4.50
2019-03-13T20:43:37.671Z,3.00
2019-03-13T20:46:05.930Z,3.90
2019-03-13T20:48:34.319Z,4.50
2019-03-13T20:51:02.848Z,4.23
2019-03-13T20:53:31.178Z,3.40
2019-03-13T20:55:59.464Z,1.60
2019-03-13T20:58:27.816Z,3.13
2019-03-13T21:00:56.171Z,2.17
2019-03-13T21:03:24.581Z,2.33
2019-03-13T21:05:52.954Z,1.83
2019-03-13T21:08:21.845Z,2.00
2019-03-13T21:10:50.245Z,2.30
2019-03-13T21:13:18.482Z,3.10
2019-03-13T21:15:46.723Z,2.80
2019-03-13T21:18:15.106Z,2.10
2019-03-13T21:20:43.371Z,2.73
2019-03-13T21:23:12.153Z,2.07
2019-03-13T21:25:40.514Z,2.43
2019-03-13T21:28:08.809Z,3.57
2019-03-13T21:30:37.140Z,2.43
2019-03-13T21:33:05.505Z,3.13
2019-03-13T21:35:33.809Z,3.00
2019-03-13T21:38:09.473Z,4.00
2019-03-13T21:40:37.728Z,3.60
2019-03-13T21:43:06.012Z,4.30
2019-03-13T21:45:41.144Z,4.20
2019-03-13T21:48:04.449Z,3.67
2019-03-13T21:50:32.683Z,6.07
2019-03-13T21:53:00.958Z,6.47
2019-03-13T21:55:29.230Z,5.90
2019-03-13T21:57:57.548Z,4.30
2019-03-13T22:00:26.622Z,5.00
2019-03-13T22:02:55.006Z,4.63
2019-03-13T22:05:27.360Z,3.77
2019-03-13T22:07:53.988Z,4.30
2019-03-13T22:10:22.801Z,5.23
2019-03-13T22:12:51.133Z,3.97
2019-03-13T22:15:20.548Z,3.40
2019-03-13T22:17:48.797Z,3.63
2019-03-13T22:20:17.496Z,4.60
2019-03-13T22:22:45.901Z,4.20
2019-03-13T22:25:15.390Z,4.73
2019-03-13T22:27:43.836Z,5.37
2019-03-13T22:30:21.180Z,3.37
2019-03-13T22:32:49.609Z,3.93
2019-03-13T22:35:17.853Z,3.70
2019-03-13T22:37:46.142Z,3.53
2019-03-13T22:40:15.853Z,3.50
2019-03-13T22:42:44.094Z,4.73
2019-03-13T22:45:15.069Z,4.10
2019-03-13T22:47:43.887Z,3.90
2019-03-13T22:50:17.352Z,3.53
2019-03-13T22:52:45.765Z,2.80
2019-03-13T22:55:14.206Z,3.83
2019-03-13T22:57:42.498Z,5.17
2019-03-13T23:00:23.339Z,4.57
2019-03-13T23:02:52.074Z,4.00
2019-03-13T23:05:20.709Z,3.60
2019-03-13T23:07:48.977Z,3.97
2019-03-13T23:10:33.332Z,3.07
2019-03-13T23:13:01.617Z,4.47
2019-03-13T23:15:30.025Z,3.07
2019-03-13T23:17:58.267Z,6.00
2019-03-13T23:20:26.520Z,3.17
2019-03-13T23:22:54.782Z,4.73
2019-03-13T23:25:23.295Z,3.97
2019-03-13T23:27:51.591Z,3.40
2019-03-13T23:30:20.294Z,4.40
2019-03-13T23:32:48.528Z,3.90
2019-03-13T23:35:16.787Z,4.37
2019-03-13T23:37:45.176Z,3.80
2019-03-13T23:40:13.415Z,4.00
2019-03-13T23:42:41.697Z,4.80
2019-03-13T23:45:10.252Z,5.57
2019-03-13T23:47:39.272Z,3.50
2019-03-13T23:50:09.536Z,4.43
2019-03-13T23:52:37.813Z,4.20
2019-03-13T23:55:06.730Z,3.70
2019-03-13T23:57:34.975Z,4.50
